Weather reports worldwide

Advertisment
Valladolid/Villanubla, Spain (8140): temperature & dewpoint: 18.01.2020 03:00:00 - 24.01.2020 03:00:00 (CET)Valladolid/Villanubla, Spain (8140): wind speed: 18.01.2020 03:00:00 - 24.01.2020 03:00:00 (CET)Valladolid/Villanubla, Spain (8140): wind direction: 18.01.2020 03:00:00 - 24.01.2020 03:00:00 (CET)Valladolid/Villanubla, Spain (8140): visibility: 18.01.2020 03:00:00 - 24.01.2020 03:00:00 (CET)
Date & Time tt [°C] td [°C] ff [km/h] ff [kn] dd vv [km]
24.01.2020 03:00:00 3,0 2,0 13 7 ENE 10
24.01.2020 02:00:00 3,0 1,0 8 4 ENE 9
24.01.2020 01:00:00 4,0 2,0 13 7 E 9
24.01.2020 00:00:00 4,0 2,0 4 2 - 10
23.01.2020 23:00:00 4,0 2,0 11 6 SE 10
23.01.2020 22:00:00 2,0 0,0 9 5 SE 10
23.01.2020 21:00:00 5,0 1,0 11 6 SSE 10
23.01.2020 20:00:00 4,0 2,0 5 3 ESE 10
23.01.2020 19:00:00 4,7 2,1 11 6 SE 15
23.01.2020 18:00:00 7,0 3,0 8 4 ENE 10
23.01.2020 17:00:00 8,0 3,0 5 3 E 10
23.01.2020 16:00:00 8,2 2,0 13 7 ENE 10
23.01.2020 15:00:00 8,0 3,0 13 7 E 10
23.01.2020 14:00:00 8,0 3,0 15 8 ENE 10
23.01.2020 13:00:00 6,0 3,0 11 6 ENE 20
23.01.2020 12:00:00 4,0 2,0 15 8 E 10
23.01.2020 11:00:00 3,0 2,0 16 9 E 10
23.01.2020 10:00:00 1,0 0,3 18 10 ENE 15
23.01.2020 09:00:00 0,0 0,0 8 4 ENE 10
23.01.2020 08:00:00 0,0 0,0 15 8 ENE 10
23.01.2020 07:00:00 0,1 -0,5 18 10 ENE 10
23.01.2020 06:00:00 0,0 -1,0 11 6 E 9
23.01.2020 05:00:00 -1,0 -1,0 9 5 ENE 10
23.01.2020 04:00:00 0,0 0,0 9 5 ENE 9
23.01.2020 03:00:00 0,0 0,0 13 7 E 8
23.01.2020 02:00:00 1,0 0,0 16 9 E 10
23.01.2020 01:00:00 1,0 0,0 18 10 E 9
23.01.2020 00:00:00 2,0 1,0 21 11 ENE 9
22.01.2020 23:00:00 2,0 1,0 18 10 ENE 9
22.01.2020 22:00:00 2,0 1,0 15 8 ENE 9
22.01.2020 21:00:00 3,0 2,0 21 11 E 10
22.01.2020 20:00:00 4,0 2,0 18 10 ENE 10
22.01.2020 19:00:00 5,4 2,1 16 9 ENE 10
22.01.2020 18:00:00 7,0 3,0 16 9 ENE 10
22.01.2020 17:00:00 8,0 2,0 21 11 ENE 10
22.01.2020 16:00:00 8,2 2,9 21 11 NE 20
22.01.2020 15:00:00 9,0 2,0 21 11 ENE 10
22.01.2020 14:00:00 8,0 3,0 22 12 E 10
22.01.2020 13:00:00 6,3 2,8 26 14 ENE 10
22.01.2020 12:00:00 5,0 2,0 28 15 E 10
22.01.2020 11:00:00 4,0 2,0 24 13 ENE 10
22.01.2020 10:00:00 2,8 1,6 22 12 ENE 10
22.01.2020 09:00:00 2,0 1,0 26 14 ENE 10
22.01.2020 08:00:00 2,0 1,0 29 16 ENE 10
22.01.2020 07:00:00 2,6 1,6 29 16 ENE 10
22.01.2020 06:00:00 3,0 2,0 41 22 ENE 9
22.01.2020 05:00:00 3,0 2,0 37 20 ENE 10
22.01.2020 04:00:00 3,0 1,0 31 17 ENE 10
22.01.2020 03:00:00 3,0 1,0 41 22 ENE 9
22.01.2020 02:00:00 3,0 1,0 41 22 ENE 9
22.01.2020 01:00:00 2,0 1,0 39 21 ENE 10
22.01.2020 00:00:00 3,0 1,0 42 23 ENE 10
21.01.2020 23:00:00 3,0 0,0 37 20 ENE 10
21.01.2020 22:00:00 3,0 1,0 39 21 NE 10
21.01.2020 21:00:00 3,0 1,0 44 24 ENE 10
21.01.2020 20:00:00 2,0 0,0 41 22 ENE 10
21.01.2020 19:00:00 2,2 0,3 44 24 ENE 10
21.01.2020 18:00:00 2,0 1,0 44 24 ENE 10
21.01.2020 17:00:00 3,0 0,0 50 27 ENE 10
21.01.2020 16:00:00 3,8 0,1 52 28 ENE 10
21.01.2020 15:00:00 4,0 0,0 44 24 ENE 10
21.01.2020 14:00:00 4,0 0,0 42 23 NE 10
21.01.2020 13:00:00 3,4 -0,6 44 24 NE 10
21.01.2020 12:00:00 3,0 -1,0 54 29 ENE 10
21.01.2020 11:00:00 2,0 -2,0 50 27 ENE 10
21.01.2020 10:00:00 1,4 -2,2 44 24 NE 10
21.01.2020 09:00:00 0,0 -3,0 39 21 NE 10
21.01.2020 08:00:00 1,0 -2,0 44 24 NE 10
21.01.2020 07:00:00 0,3 -3,1 41 22 NE 10
21.01.2020 06:00:00 0,0 -3,0 42 23 NE 9
21.01.2020 05:00:00 0,0 -3,0 35 19 ENE 9
21.01.2020 04:00:00 1,0 -3,0 41 22 NE 10
21.01.2020 03:00:00 0,0 -3,0 39 21 ENE 10
21.01.2020 02:00:00 0,0 -3,0 42 23 ENE 9
21.01.2020 01:00:00 0,0 -3,0 39 21 NE 9
21.01.2020 00:00:00 0,0 -3,0 39 21 NE 10
20.01.2020 23:00:00 -1,0 -4,0 37 20 NE 10
20.01.2020 22:00:00 0,0 -4,0 42 23 NE 10
20.01.2020 21:00:00 0,0 -4,0 46 25 NE 10
20.01.2020 20:00:00 0,0 -4,0 42 23 NE 10
20.01.2020 19:00:00 0,8 -4,4 39 21 NE 15
20.01.2020 18:00:00 1,0 -4,0 42 23 NE 10
20.01.2020 17:00:00 2,0 -4,0 41 22 NE 10
20.01.2020 16:00:00 1,9 -4,8 44 24 NE 20
20.01.2020 15:00:00 2,0 -5,0 48 26 NE 10
20.01.2020 14:00:00 3,0 -5,0 55 30 ENE 10
20.01.2020 13:00:00 1,6 -6,0 55 30 ENE 10
20.01.2020 12:00:00 2,0 -6,0 54 29 ENE 10
20.01.2020 11:00:00 1,0 -6,0 61 33 NE 10
20.01.2020 10:00:00 0,1 -6,3 54 29 NE 25
20.01.2020 09:00:00 0,0 -6,0 48 26 NE 10
20.01.2020 08:00:00 0,0 -5,0 42 23 NE 10
20.01.2020 07:00:00 -0,6 -5,6 37 20 NE 10
20.01.2020 06:00:00 0,0 -6,0 34 18 NE 10
20.01.2020 05:00:00 0,0 -5,0 31 17 NE 9
20.01.2020 04:00:00 0,0 -5,0 42 23 NE 10
20.01.2020 03:00:00 0,0 -5,0 42 23 NE 10
20.01.2020 02:00:00 0,0 -5,0 46 25 NE 10
20.01.2020 01:00:00 0,0 -5,0 41 22 ENE 10
20.01.2020 00:00:00 1,0 -4,0 54 29 NE 10
19.01.2020 23:00:00 1,0 -4,0 44 24 ENE 10
19.01.2020 22:00:00 1,0 -4,0 37 20 ENE 10
19.01.2020 21:00:00 1,0 -4,0 50 27 NE 10
19.01.2020 20:00:00 1,0 -4,0 46 25 NE 10
19.01.2020 19:00:00 1,6 -5,3 46 25 NE 20
19.01.2020 18:00:00 3,0 -5,0 48 26 NE 10
19.01.2020 17:00:00 4,0 -5,0 63 34 NE 10
19.01.2020 16:00:00 5,0 -3,8 61 33 NE 30
19.01.2020 15:00:00 6,0 -3,0 67 36 NNE 10
19.01.2020 14:00:00 6,0 -2,0 54 29 NE 10
19.01.2020 13:00:00 5,6 -2,5 67 36 NE 10
19.01.2020 12:00:00 5,0 -1,0 59 32 NE 10
19.01.2020 11:00:00 5,0 -1,0 46 25 NE 10
19.01.2020 10:00:00 3,5 0,9 50 27 NNE 25
19.01.2020 09:00:00 3,0 1,0 28 15 NNE 10
19.01.2020 08:00:00 3,0 2,0 28 15 NNE 10
19.01.2020 07:00:00 1,3 0,7 13 7 N 10
19.01.2020 06:00:00 1,0 1,0 9 5 N 10
19.01.2020 05:00:00 1,0 0,0 13 7 N 10
19.01.2020 04:00:00 1,0 0,0 11 6 NNW 9
19.01.2020 03:00:00 1,0 0,0 9 5 NNW 10
19.01.2020 02:00:00 1,0 0,0 13 7 N 9
19.01.2020 01:00:00 3,0 1,0 13 7 WNW 10
19.01.2020 00:00:00 3,0 1,0 11 6 W 10
18.01.2020 23:00:00 3,0 2,0 9 5 W 10
18.01.2020 22:00:00 3,0 2,0 8 4 WNW 10
18.01.2020 21:00:00 4,0 3,0 9 5 NNW 10
18.01.2020 20:00:00 6,0 4,0 22 12 WNW 10
18.01.2020 19:00:00 7,6 5,2 35 19 WNW 10
18.01.2020 18:00:00 9,0 6,0 34 18 W 2,5
18.01.2020 17:00:00 11,0 8,0 42 23 WSW 10
18.01.2020 16:00:00 10,9 7,8 42 23 WSW 10
18.01.2020 15:00:00 10,0 9,0 31 17 SW 9
18.01.2020 14:00:00 8,0 8,0 21 11 SSW 9
18.01.2020 13:00:00 7,2 6,6 22 12 SSW 4,0
18.01.2020 12:00:00 6,0 6,0 15 8 S 4,0
18.01.2020 11:00:00 5,0 5,0 15 8 S 4,0
18.01.2020 10:00:00 4,9 3,6 16 9 S 10
18.01.2020 09:00:00 4,0 4,0 11 6 S 10
18.01.2020 08:00:00 4,0 3,0 8 4 S 10
18.01.2020 07:00:00 3,4 1,9 8 4 S 10
18.01.2020 06:00:00 3,0 2,0 9 5 S 10
18.01.2020 05:00:00 3,0 2,0 11 6 SSE 10
18.01.2020 04:00:00 4,0 2,0 8 4 S 10
18.01.2020 03:00:00 3,0 2,0 2 1 SW 10

tt = temperature
td = dewpoint
ff = wind speed
dd = wind direction
vv = visibility

Next stations